PWSweather.com
Personal Weather Stations
Station Observations
COONRAPIDS
Minneapolis, MN 55433

Minneapolis, MN 55433

Lat: 45.187721, Lon: -93.36828

Elevation: 898

Station Type: Davis Vantage Pro 2

High Low Average
Temperature 36.4°F2.4°C 25.8°F-3.4°C 32.8°F0.4°C
Dew Point 32.9°F0.5°C 17.7°F-7.9°C 25.6°F-3.6°C
Winds 2.3 mph 3.7 kmh Calm Calm Calm SECalm SE
Wind Gusts 6.9 mph11.1 kmh -- 1.0 mph1.6 kmh
Humidity 89% 59% 75%
Pressure 29.93 in1013.5 mb 29.66 in1004.4 mb -
Precipitation 0.04 in1.0 mm - -
Hour Temp Dew Point Humidity Winds Wind Gusts Pressure Precip Precip Rate Daily Precip Total
12:00 AM 26.2°F-3.2°C 18.1°F-7.7°C 71% Calm Calm -- 29.93 in1013.5 mb - 0.00 in0.0 mm 0.00 in0.0 mm
12:10 AM 26.3°F-3.2°C 18.1°F-7.7°C 71% Calm Calm -- 29.92 in1013.2 mb - 0.00 in0.0 mm 0.00 in0.0 mm
12:20 AM 26.1°F-3.3°C 18.0°F-7.8°C 71% Calm Calm -- 29.92 in1013.2 mb - 0.00 in0.0 mm 0.00 in0.0 mm
12:30 AM 25.8°F-3.4°C 17.7°F-7.9°C 71% Calm Calm -- 29.92 in1013.2 mb - 0.00 in0.0 mm 0.00 in0.0 mm
12:40 AM 26.1°F-3.3°C 18.3°F-7.6°C 72% Calm Calm -- 29.91 in1012.9 mb - 0.00 in0.0 mm 0.00 in0.0 mm
12:50 AM 26.4°F-3.1°C 18.3°F-7.6°C 71% Calm Calm -- 29.91 in1012.9 mb - 0.00 in0.0 mm 0.00 in0.0 mm
01:00 AM 26.5°F-3.1°C 18.3°F-7.6°C 71% Calm Calm -- 29.91 in1012.9 mb - 0.00 in0.0 mm 0.00 in0.0 mm
01:10 AM 26.5°F-3.1°C 18.0°F-7.8°C 70% Calm Calm -- 29.90 in1012.5 mb - 0.00 in0.0 mm 0.00 in0.0 mm
01:20 AM 26.7°F-2.9°C 18.6°F-7.4°C 71% Calm Calm -- 29.90 in1012.5 mb - 0.00 in0.0 mm 0.00 in0.0 mm
01:30 AM 27.0°F-2.8°C 18.9°F-7.3°C 71% Calm Calm -- 29.89 in1012.2 mb - 0.00 in0.0 mm 0.00 in0.0 mm
01:40 AM 27.5°F-2.5°C 19.0°F-7.2°C 70% Calm Calm -- 29.89 in1012.2 mb - 0.00 in0.0 mm 0.00 in0.0 mm
01:50 AM 27.9°F-2.3°C 19.0°F-7.2°C 69% Calm Calm -- 29.89 in1012.2 mb - 0.00 in0.0 mm 0.00 in0.0 mm
02:00 AM 28.3°F-2.1°C 19.4°F-7.0°C 69% Calm Calm -- 29.89 in1012.2 mb - 0.00 in0.0 mm 0.00 in0.0 mm
02:10 AM 28.7°F-1.8°C 19.8°F-6.8°C 69% Calm Calm 1.2 mph1.9 kmh 29.89 in1012.2 mb - 0.00 in0.0 mm 0.00 in0.0 mm
02:20 AM 28.9°F-1.7°C 19.7°F-6.8°C 68% Calm Calm -- 29.88 in1011.9 mb - 0.00 in0.0 mm 0.00 in0.0 mm
02:30 AM 29.1°F-1.6°C 19.8°F-6.8°C 68% Calm Calm -- 29.87 in1011.5 mb - 0.00 in0.0 mm 0.00 in0.0 mm
02:40 AM 29.3°F-1.5°C 19.7°F-6.8°C 67% Calm Calm -- 29.87 in1011.5 mb - 0.00 in0.0 mm 0.00 in0.0 mm
02:50 AM 29.4°F-1.4°C 19.4°F-7.0°C 66% Calm Calm -- 29.87 in1011.5 mb - 0.00 in0.0 mm 0.00 in0.0 mm
03:00 AM 29.5°F-1.4°C 19.5°F-6.9°C 66% 1.2 mph SSE1.9 kmh SSE 1.2 mph1.9 kmh 29.86 in1011.2 mb - 0.00 in0.0 mm 0.00 in0.0 mm
03:10 AM 29.6°F-1.3°C 19.6°F-6.9°C 66% 1.2 mph SE1.9 kmh SE 1.2 mph1.9 kmh 29.86 in1011.2 mb - 0.00 in0.0 mm 0.00 in0.0 mm
03:20 AM 29.7°F-1.3°C 19.4°F-7.0°C 65% Calm Calm 3.5 mph5.6 kmh 29.86 in1011.2 mb - 0.00 in0.0 mm 0.00 in0.0 mm
03:30 AM 29.9°F-1.2°C 19.5°F-6.9°C 65% 1.2 mph S1.9 kmh S 2.3 mph3.7 kmh 29.85 in1010.8 mb - 0.00 in0.0 mm 0.00 in0.0 mm
03:40 AM 29.9°F-1.2°C 19.9°F-6.7°C 66% 1.2 mph SSE1.9 kmh SSE 6.9 mph11.1 kmh 29.85 in1010.8 mb - 0.00 in0.0 mm 0.00 in0.0 mm
03:50 AM 29.9°F-1.2°C 19.9°F-6.7°C 66% Calm Calm -- 29.84 in1010.5 mb - 0.00 in0.0 mm 0.00 in0.0 mm
04:00 AM 29.9°F-1.2°C 19.9°F-6.7°C 66% Calm Calm -- 29.84 in1010.5 mb - 0.00 in0.0 mm 0.00 in0.0 mm
04:10 AM 29.9°F-1.2°C 19.9°F-6.7°C 66% Calm Calm 3.5 mph5.6 kmh 29.83 in1010.2 mb - 0.00 in0.0 mm 0.00 in0.0 mm
04:20 AM 30.0°F-1.1°C 20.0°F-6.7°C 66% Calm Calm 2.3 mph3.7 kmh 29.83 in1010.2 mb - 0.00 in0.0 mm 0.00 in0.0 mm
04:30 AM 30.1°F-1.1°C 20.5°F-6.4°C 67% Calm Calm -- 29.82 in1009.8 mb - 0.00 in0.0 mm 0.00 in0.0 mm
04:40 AM 30.2°F-1.0°C 20.6°F-6.3°C 67% Calm Calm -- 29.82 in1009.8 mb - 0.00 in0.0 mm 0.00 in0.0 mm
04:50 AM 30.3°F-0.9°C 20.6°F-6.3°C 67% Calm Calm -- 29.82 in1009.8 mb - 0.00 in0.0 mm 0.00 in0.0 mm
05:00 AM 30.3°F-0.9°C 20.6°F-6.3°C 67% Calm Calm -- 29.81 in1009.5 mb - 0.00 in0.0 mm 0.00 in0.0 mm
05:10 AM 30.3°F-0.9°C 20.6°F-6.3°C 67% Calm Calm -- 29.81 in1009.5 mb - 0.00 in0.0 mm 0.00 in0.0 mm
05:20 AM 30.4°F-0.9°C 21.1°F-6.1°C 68% Calm Calm -- 29.81 in1009.5 mb - 0.00 in0.0 mm 0.00 in0.0 mm
05:30 AM 30.5°F-0.8°C 20.8°F-6.2°C 67% Calm Calm -- 29.81 in1009.5 mb - 0.00 in0.0 mm 0.00 in0.0 mm
05:40 AM 30.6°F-0.8°C 20.9°F-6.2°C 67% Calm Calm -- 29.81 in1009.5 mb - 0.00 in0.0 mm 0.00 in0.0 mm
05:50 AM 30.7°F-0.7°C 20.7°F-6.3°C 66% 1.2 mph SE1.9 kmh SE 2.3 mph3.7 kmh 29.80 in1009.1 mb - 0.00 in0.0 mm 0.00 in0.0 mm
06:00 AM 30.8°F-0.7°C 20.8°F-6.2°C 66% Calm Calm -- 29.80 in1009.1 mb - 0.00 in0.0 mm 0.00 in0.0 mm
06:10 AM 30.9°F-0.6°C 20.8°F-6.2°C 66% Calm Calm -- 29.80 in1009.1 mb - 0.00 in0.0 mm 0.00 in0.0 mm
06:20 AM 30.9°F-0.6°C 20.9°F-6.2°C 66% Calm Calm 2.3 mph3.7 kmh 29.80 in1009.1 mb - 0.00 in0.0 mm 0.00 in0.0 mm
06:30 AM 31.0°F-0.6°C 21.3°F-5.9°C 67% Calm Calm -- 29.80 in1009.1 mb - 0.00 in0.0 mm 0.00 in0.0 mm
06:40 AM 31.1°F-0.5°C 21.1°F-6.1°C 66% Calm Calm -- 29.79 in1008.8 mb - 0.00 in0.0 mm 0.00 in0.0 mm
06:50 AM 31.2°F-0.4°C 21.2°F-6.0°C 66% Calm Calm -- 29.79 in1008.8 mb - 0.00 in0.0 mm 0.00 in0.0 mm
07:00 AM 31.4°F-0.3°C 21.3°F-5.9°C 66% Calm Calm -- 29.80 in1009.1 mb - 0.00 in0.0 mm 0.00 in0.0 mm
07:10 AM 31.5°F-0.3°C 21.8°F-5.7°C 67% Calm Calm 1.2 mph1.9 kmh 29.79 in1008.8 mb - 0.00 in0.0 mm 0.00 in0.0 mm
07:20 AM 31.6°F-0.2°C 21.9°F-5.6°C 67% Calm Calm -- 29.79 in1008.8 mb - 0.00 in0.0 mm 0.00 in0.0 mm
07:30 AM 31.7°F-0.2°C 22.0°F-5.6°C 67% Calm Calm -- 29.80 in1009.1 mb - 0.00 in0.0 mm 0.00 in0.0 mm
07:40 AM 31.9°F-0.1°C 22.2°F-5.4°C 67% Calm Calm -- 29.80 in1009.1 mb - 0.00 in0.0 mm 0.00 in0.0 mm
07:50 AM 32.1°F0.1°C 22.0°F-5.6°C 66% Calm Calm -- 29.80 in1009.1 mb - 0.00 in0.0 mm 0.00 in0.0 mm
08:00 AM 32.2°F0.1°C 22.1°F-5.5°C 66% Calm Calm -- 29.79 in1008.8 mb - 0.00 in0.0 mm 0.00 in0.0 mm
08:10 AM 32.2°F0.1°C 22.1°F-5.5°C 66% Calm Calm -- 29.79 in1008.8 mb - 0.00 in0.0 mm 0.00 in0.0 mm
08:20 AM 32.3°F0.2°C 21.8°F-5.7°C 65% Calm Calm -- 29.79 in1008.8 mb - 0.00 in0.0 mm 0.00 in0.0 mm
08:30 AM 32.3°F0.2°C 21.5°F-5.8°C 64% Calm Calm -- 29.79 in1008.8 mb - 0.00 in0.0 mm 0.00 in0.0 mm
08:40 AM 32.4°F0.2°C 21.6°F-5.8°C 64% 1.2 mph SE1.9 kmh SE 3.5 mph5.6 kmh 29.79 in1008.8 mb - 0.00 in0.0 mm 0.00 in0.0 mm
08:50 AM 32.4°F0.2°C 20.8°F-6.2°C 62% 1.2 mph SE1.9 kmh SE 3.5 mph5.6 kmh 29.78 in1008.5 mb - 0.00 in0.0 mm 0.00 in0.0 mm
09:00 AM 32.4°F0.2°C 21.2°F-6.0°C 63% Calm Calm -- 29.78 in1008.5 mb - 0.00 in0.0 mm 0.00 in0.0 mm
09:10 AM 32.5°F0.3°C 20.9°F-6.2°C 62% Calm Calm -- 29.78 in1008.5 mb - 0.00 in0.0 mm 0.00 in0.0 mm
09:20 AM 32.6°F0.3°C 21.0°F-6.1°C 62% 1.2 mph SE1.9 kmh SE 2.3 mph3.7 kmh 29.77 in1008.1 mb - 0.00 in0.0 mm 0.00 in0.0 mm
09:30 AM 32.7°F0.4°C 21.1°F-6.1°C 62% Calm Calm -- 29.77 in1008.1 mb - 0.00 in0.0 mm 0.00 in0.0 mm
09:40 AM 32.8°F0.4°C 21.2°F-6.0°C 62% Calm Calm -- 29.77 in1008.1 mb - 0.00 in0.0 mm 0.00 in0.0 mm
09:50 AM 32.9°F0.5°C 21.7°F-5.7°C 63% Calm Calm -- 29.77 in1008.1 mb - 0.00 in0.0 mm 0.00 in0.0 mm
10:00 AM 33.1°F0.6°C 21.9°F-5.6°C 63% 1.2 mph SE1.9 kmh SE 2.3 mph3.7 kmh 29.77 in1008.1 mb - 0.00 in0.0 mm 0.00 in0.0 mm
10:10 AM 33.2°F0.7°C 22.0°F-5.6°C 63% 1.2 mph S1.9 kmh S 3.5 mph5.6 kmh 29.78 in1008.5 mb - 0.00 in0.0 mm 0.00 in0.0 mm
10:20 AM 33.4°F0.8°C 22.5°F-5.3°C 64% Calm Calm -- 29.78 in1008.5 mb - 0.00 in0.0 mm 0.00 in0.0 mm
10:30 AM 33.8°F1.0°C 22.5°F-5.3°C 63% Calm Calm -- 29.78 in1008.5 mb - 0.00 in0.0 mm 0.00 in0.0 mm
10:40 AM 34.0°F1.1°C 22.3°F-5.4°C 62% Calm Calm -- 29.77 in1008.1 mb - 0.00 in0.0 mm 0.00 in0.0 mm
10:50 AM 34.1°F1.2°C 22.4°F-5.3°C 62% Calm Calm -- 29.75 in1007.5 mb - 0.00 in0.0 mm 0.00 in0.0 mm
11:00 AM 34.4°F1.3°C 22.7°F-5.2°C 62% Calm Calm 3.5 mph5.6 kmh 29.75 in1007.5 mb - 0.00 in0.0 mm 0.00 in0.0 mm
11:10 AM 34.4°F1.3°C 22.7°F-5.2°C 62% Calm Calm -- 29.75 in1007.5 mb - 0.00 in0.0 mm 0.00 in0.0 mm
11:20 AM 34.7°F1.5°C 23.4°F-4.8°C 63% Calm Calm -- 29.75 in1007.5 mb - 0.00 in0.0 mm 0.00 in0.0 mm
11:30 AM 35.1°F1.7°C 23.3°F-4.8°C 62% Calm Calm -- 29.75 in1007.5 mb - 0.00 in0.0 mm 0.00 in0.0 mm
11:40 AM 35.6°F2.0°C 23.4°F-4.8°C 61% Calm Calm -- 29.74 in1007.1 mb - 0.00 in0.0 mm 0.00 in0.0 mm
11:50 AM 35.9°F2.2°C 23.4°F-4.8°C 60% Calm Calm 3.5 mph5.6 kmh 29.74 in1007.1 mb - 0.00 in0.0 mm 0.00 in0.0 mm
12:00 PM 36.0°F2.2°C 23.8°F-4.6°C 61% Calm Calm -- 29.73 in1006.8 mb - 0.00 in0.0 mm 0.00 in0.0 mm
12:10 PM 36.2°F2.3°C 23.6°F-4.7°C 60% Calm Calm -- 29.72 in1006.4 mb - 0.00 in0.0 mm 0.00 in0.0 mm
12:20 PM 36.4°F2.4°C 23.4°F-4.8°C 59% 2.3 mph SE3.7 kmh SE 2.3 mph3.7 kmh 29.71 in1006.1 mb - 0.00 in0.0 mm 0.00 in0.0 mm
12:30 PM 36.1°F2.3°C 23.9°F-4.5°C 61% Calm Calm 3.5 mph5.6 kmh 29.70 in1005.8 mb - 0.00 in0.0 mm 0.00 in0.0 mm
12:40 PM 35.7°F2.1°C 25.0°F-3.9°C 65% Calm Calm 4.6 mph7.4 kmh 29.70 in1005.8 mb - 0.00 in0.0 mm 0.00 in0.0 mm
12:50 PM 35.5°F1.9°C 26.0°F-3.3°C 68% Calm Calm -- 29.70 in1005.8 mb - 0.00 in0.0 mm 0.00 in0.0 mm
01:00 PM 35.3°F1.8°C 26.8°F-2.9°C 71% Calm Calm -- 29.70 in1005.8 mb - 0.00 in0.0 mm 0.00 in0.0 mm
01:10 PM 34.7°F1.5°C 27.9°F-2.3°C 76% Calm Calm -- 29.70 in1005.8 mb - 0.00 in0.0 mm 0.00 in0.0 mm
01:20 PM 34.1°F1.2°C 28.3°F-2.1°C 79% Calm Calm -- 29.69 in1005.4 mb - 0.00 in0.0 mm 0.00 in0.0 mm
01:30 PM 33.6°F0.9°C 28.4°F-2.0°C 81% Calm Calm -- 29.69 in1005.4 mb - 0.00 in0.0 mm 0.00 in0.0 mm
01:40 PM 33.3°F0.7°C 28.4°F-2.0°C 82% 2.3 mph ESE3.7 kmh ESE 5.8 mph9.3 kmh 29.68 in1005.1 mb - 0.00 in0.0 mm 0.00 in0.0 mm
01:50 PM 33.2°F0.7°C 28.6°F-1.9°C 83% Calm Calm -- 29.68 in1005.1 mb - 0.00 in0.0 mm 0.00 in0.0 mm
02:00 PM 33.1°F0.6°C 28.8°F-1.8°C 84% Calm Calm -- 29.67 in1004.7 mb - 0.00 in0.0 mm 0.00 in0.0 mm
02:10 PM 33.1°F0.6°C 28.8°F-1.8°C 84% 1.2 mph ESE1.9 kmh ESE 5.8 mph9.3 kmh 29.66 in1004.4 mb - 0.00 in0.0 mm 0.00 in0.0 mm
02:20 PM 33.2°F0.7°C 28.6°F-1.9°C 83% Calm Calm 4.6 mph7.4 kmh 29.66 in1004.4 mb - 0.00 in0.0 mm 0.00 in0.0 mm
02:30 PM 33.4°F0.8°C 28.8°F-1.8°C 83% 2.3 mph E3.7 kmh E 5.8 mph9.3 kmh 29.66 in1004.4 mb - 0.00 in0.0 mm 0.00 in0.0 mm
02:40 PM 33.5°F0.8°C 28.9°F-1.7°C 83% 2.3 mph ESE3.7 kmh ESE 4.6 mph7.4 kmh 29.66 in1004.4 mb - 0.00 in0.0 mm 0.00 in0.0 mm
02:50 PM 33.5°F0.8°C 28.9°F-1.7°C 83% Calm Calm -- 29.66 in1004.4 mb - 0.00 in0.0 mm 0.00 in0.0 mm
03:00 PM 33.6°F0.9°C 29.0°F-1.7°C 83% Calm Calm -- 29.66 in1004.4 mb - 0.00 in0.0 mm 0.00 in0.0 mm
03:10 PM 33.7°F0.9°C 29.1°F-1.6°C 83% Calm Calm -- 29.66 in1004.4 mb - 0.00 in0.0 mm 0.00 in0.0 mm
03:20 PM 33.8°F1.0°C 29.2°F-1.6°C 83% Calm Calm 4.6 mph7.4 kmh 29.66 in1004.4 mb - 0.00 in0.0 mm 0.00 in0.0 mm
03:30 PM 33.8°F1.0°C 29.5°F-1.4°C 84% Calm Calm -- 29.67 in1004.7 mb - 0.00 in0.0 mm 0.00 in0.0 mm
03:40 PM 33.9°F1.1°C 29.6°F-1.3°C 84% Calm Calm -- 29.67 in1004.7 mb - 0.00 in0.0 mm 0.00 in0.0 mm
03:50 PM 34.0°F1.1°C 30.0°F-1.1°C 85% Calm Calm -- 29.67 in1004.7 mb - 0.00 in0.0 mm 0.00 in0.0 mm
04:00 PM 34.0°F1.1°C 30.3°F-0.9°C 86% Calm Calm 3.5 mph5.6 kmh 29.67 in1004.7 mb - 0.00 in0.0 mm 0.00 in0.0 mm
04:10 PM 34.0°F1.1°C 30.3°F-0.9°C 86% Calm Calm -- 29.66 in1004.4 mb - 0.00 in0.0 mm 0.00 in0.0 mm
04:20 PM 34.1°F1.2°C 30.4°F-0.9°C 86% Calm Calm -- 29.67 in1004.7 mb - 0.01 in0.3 mm 0.01 in0.3 mm
04:30 PM 34.2°F1.2°C 30.7°F-0.7°C 87% Calm Calm -- 29.68 in1005.1 mb - 0.00 in0.0 mm 0.01 in0.3 mm
04:40 PM 34.3°F1.3°C 30.8°F-0.7°C 87% Calm Calm -- 29.68 in1005.1 mb - 0.00 in0.0 mm 0.01 in0.3 mm
04:50 PM 34.3°F1.3°C 30.8°F-0.7°C 87% Calm Calm -- 29.68 in1005.1 mb - 0.00 in0.0 mm 0.01 in0.3 mm
05:00 PM 34.3°F1.3°C 30.8°F-0.7°C 87% Calm Calm -- 29.67 in1004.7 mb - 0.00 in0.0 mm 0.01 in0.3 mm
05:10 PM 34.3°F1.3°C 30.8°F-0.7°C 87% Calm Calm -- 29.67 in1004.7 mb - 0.01 in0.3 mm 0.02 in0.5 mm
05:20 PM 34.3°F1.3°C 31.1°F-0.5°C 88% Calm Calm -- 29.68 in1005.1 mb - 0.00 in0.0 mm 0.02 in0.5 mm
05:30 PM 34.4°F1.3°C 31.2°F-0.4°C 88% Calm Calm -- 29.68 in1005.1 mb - 0.00 in0.0 mm 0.02 in0.5 mm
05:40 PM 34.4°F1.3°C 31.2°F-0.4°C 88% Calm Calm 2.3 mph3.7 kmh 29.68 in1005.1 mb - 0.01 in0.3 mm 0.03 in0.8 mm
05:50 PM 34.4°F1.3°C 31.2°F-0.4°C 88% Calm Calm -- 29.68 in1005.1 mb - 0.00 in0.0 mm 0.03 in0.8 mm
06:00 PM 34.4°F1.3°C 31.3°F-0.4°C 88% Calm Calm -- 29.68 in1005.1 mb - 0.00 in0.0 mm 0.03 in0.8 mm
06:10 PM 34.5°F1.4°C 31.3°F-0.4°C 88% Calm Calm -- 29.69 in1005.4 mb - 0.00 in0.0 mm 0.03 in0.8 mm
06:20 PM 34.6°F1.4°C 31.4°F-0.3°C 88% Calm Calm -- 29.69 in1005.4 mb - 0.00 in0.0 mm 0.03 in0.8 mm
06:30 PM 34.7°F1.5°C 31.5°F-0.3°C 88% Calm Calm -- 29.69 in1005.4 mb - 0.00 in0.0 mm 0.03 in0.8 mm
06:40 PM 34.7°F1.5°C 31.5°F-0.3°C 88% Calm Calm -- 29.70 in1005.8 mb - 0.00 in0.0 mm 0.03 in0.8 mm
06:50 PM 34.8°F1.6°C 31.6°F-0.2°C 88% Calm Calm -- 29.69 in1005.4 mb - 0.01 in0.3 mm 0.04 in1.0 mm
07:00 PM 34.8°F1.6°C 31.6°F-0.2°C 88% Calm Calm -- 29.70 in1005.8 mb - 0.00 in0.0 mm 0.04 in1.0 mm
07:10 PM 35.0°F1.7°C 31.8°F-0.1°C 88% Calm Calm -- 29.69 in1005.4 mb - 0.00 in0.0 mm 0.04 in1.0 mm
07:20 PM 35.0°F1.7°C 31.8°F-0.1°C 88% Calm Calm -- 29.70 in1005.8 mb - 0.00 in0.0 mm 0.04 in1.0 mm
07:30 PM 35.1°F1.7°C 31.9°F-0.1°C 88% Calm Calm -- 29.69 in1005.4 mb - 0.00 in0.0 mm 0.04 in1.0 mm
07:40 PM 35.2°F1.8°C 32.0°F0.0°C 88% Calm Calm -- 29.69 in1005.4 mb - 0.00 in0.0 mm 0.04 in1.0 mm
07:50 PM 35.3°F1.8°C 32.1°F0.1°C 88% Calm Calm -- 29.70 in1005.8 mb - 0.00 in0.0 mm 0.04 in1.0 mm
08:00 PM 35.3°F1.8°C 32.4°F0.2°C 89% Calm Calm -- 29.70 in1005.8 mb - 0.00 in0.0 mm 0.04 in1.0 mm
08:10 PM 35.4°F1.9°C 32.5°F0.3°C 89% Calm Calm -- 29.70 in1005.8 mb - 0.00 in0.0 mm 0.04 in1.0 mm
08:20 PM 35.4°F1.9°C 32.5°F0.3°C 89% Calm Calm -- 29.69 in1005.4 mb - 0.00 in0.0 mm 0.04 in1.0 mm
08:30 PM 35.5°F1.9°C 32.6°F0.3°C 89% Calm Calm -- 29.70 in1005.8 mb - 0.00 in0.0 mm 0.04 in1.0 mm
08:40 PM 35.6°F2.0°C 32.6°F0.3°C 89% Calm Calm -- 29.70 in1005.8 mb - 0.00 in0.0 mm 0.04 in1.0 mm
08:50 PM 35.6°F2.0°C 32.7°F0.4°C 89% Calm Calm -- 29.71 in1006.1 mb - 0.00 in0.0 mm 0.04 in1.0 mm
09:00 PM 35.7°F2.1°C 32.8°F0.4°C 89% Calm Calm -- 29.71 in1006.1 mb - 0.00 in0.0 mm 0.04 in1.0 mm
09:10 PM 35.7°F2.1°C 32.8°F0.4°C 89% Calm Calm -- 29.71 in1006.1 mb - 0.00 in0.0 mm 0.04 in1.0 mm
09:20 PM 35.8°F2.1°C 32.9°F0.5°C 89% Calm Calm -- 29.71 in1006.1 mb - 0.00 in0.0 mm 0.04 in1.0 mm
09:30 PM 35.7°F2.1°C 32.8°F0.4°C 89% Calm Calm -- 29.70 in1005.8 mb - 0.00 in0.0 mm 0.04 in1.0 mm
09:40 PM 35.7°F2.1°C 32.8°F0.4°C 89% Calm Calm -- 29.71 in1006.1 mb - 0.00 in0.0 mm 0.04 in1.0 mm
09:50 PM 35.6°F2.0°C 32.7°F0.4°C 89% Calm Calm -- 29.71 in1006.1 mb - 0.00 in0.0 mm 0.04 in1.0 mm
10:00 PM 35.5°F1.9°C 32.6°F0.3°C 89% Calm Calm -- 29.71 in1006.1 mb - 0.00 in0.0 mm 0.04 in1.0 mm
10:10 PM 35.4°F1.9°C 32.5°F0.3°C 89% Calm Calm -- 29.71 in1006.1 mb - 0.00 in0.0 mm 0.04 in1.0 mm
10:20 PM 35.4°F1.9°C 32.4°F0.2°C 89% Calm Calm -- 29.71 in1006.1 mb - 0.00 in0.0 mm 0.04 in1.0 mm
10:30 PM 35.5°F1.9°C 32.6°F0.3°C 89% Calm Calm -- 29.71 in1006.1 mb - 0.00 in0.0 mm 0.04 in1.0 mm
10:40 PM 35.5°F1.9°C 32.6°F0.3°C 89% Calm Calm -- 29.71 in1006.1 mb - 0.00 in0.0 mm 0.04 in1.0 mm
10:50 PM 35.5°F1.9°C 32.6°F0.3°C 89% Calm Calm -- 29.72 in1006.4 mb - 0.00 in0.0 mm 0.04 in1.0 mm
11:00 PM 35.5°F1.9°C 32.6°F0.3°C 89% Calm Calm -- 29.72 in1006.4 mb - 0.00 in0.0 mm 0.04 in1.0 mm
11:10 PM 35.5°F1.9°C 32.6°F0.3°C 89% Calm Calm -- 29.72 in1006.4 mb - 0.00 in0.0 mm 0.04 in1.0 mm
11:20 PM 35.4°F1.9°C 32.5°F0.3°C 89% Calm Calm -- 29.72 in1006.4 mb - 0.00 in0.0 mm 0.04 in1.0 mm
11:30 PM 35.5°F1.9°C 32.6°F0.3°C 89% Calm Calm -- 29.71 in1006.1 mb - 0.00 in0.0 mm 0.04 in1.0 mm
11:40 PM 35.5°F1.9°C 32.6°F0.3°C 89% Calm Calm -- 29.72 in1006.4 mb - 0.00 in0.0 mm 0.04 in1.0 mm
11:50 PM 35.3°F1.8°C 32.4°F0.2°C 89% Calm Calm -- 29.72 in1006.4 mb - 0.00 in0.0 mm 0.04 in1.0 mm